QFA2 YBBN-YSSY
Flight info
| Callsign | QFA2 |
|---|---|
| Flight time | 1h 6m |
| Altitude | 40000 |
| Route | BN H91 IGDAM H652 TESAT |
| Aircraft | A388/J-SADE2E3FGHIJ3J4J5M1RWXY/LB1D1 |
Departure
| Time | 2026-04-22 23:54 |
|---|---|
| Airport | Brisbane International Airport (YBBN) |
Arrival
| Time | 2026-04-23 01:00 |
|---|---|
| Airport | Sydney Kingsford Smith International Airport (YSSY) |
| Time | Latitude | Longitude | Altitude | Speed | Heading |
|---|---|---|---|---|---|
| 2026-04-22 23:37 | -27.40060 | 153.11354 | 24 ft | 0 kts | 297° |
| 2026-04-22 23:37 | -27.40057 | 153.11366 | 25 ft | 0 kts | 297° |
| 2026-04-22 23:44 | -27.40060 | 153.11373 | 23 ft | 4 kts | 291° |
| 2026-04-22 23:44 | -27.40064 | 153.11402 | 28 ft | 4 kts | 267° |
| 2026-04-22 23:44 | -27.40066 | 153.11428 | 28 ft | 3 kts | 310° |
| 2026-04-22 23:45 | -27.40082 | 153.11446 | 27 ft | 4 kts | 332° |
| 2026-04-22 23:45 | -27.40106 | 153.11451 | 27 ft | 4 kts | 22° |
| 2026-04-22 23:45 | -27.40128 | 153.11435 | 28 ft | 4 kts | 39° |
| 2026-04-22 23:45 | -27.40139 | 153.11425 | 28 ft | 1 kts | 29° |
| 2026-04-22 23:50 | -27.40138 | 153.11426 | 28 ft | 2 kts | 28° |
| 2026-04-22 23:50 | -27.40097 | 153.11448 | 27 ft | 12 kts | 25° |
| 2026-04-22 23:51 | -27.39991 | 153.11507 | 24 ft | 22 kts | 30° |
| 2026-04-22 23:51 | -27.39877 | 153.11589 | 27 ft | 19 kts | 58° |
| 2026-04-22 23:51 | -27.39823 | 153.11712 | 27 ft | 16 kts | 37° |
| 2026-04-22 23:51 | -27.39712 | 153.11781 | 26 ft | 21 kts | 25° |
| 2026-04-22 23:52 | -27.39568 | 153.11861 | 24 ft | 24 kts | 28° |
| 2026-04-22 23:52 | -27.39540 | 153.12008 | 28 ft | 21 kts | 110° |
| 2026-04-22 23:52 | -27.39560 | 153.12067 | 29 ft | 21 kts | 113° |
| 2026-04-22 23:52 | -27.39601 | 153.12165 | 30 ft | 13 kts | 107° |
| 2026-04-22 23:53 | -27.39574 | 153.12223 | 28 ft | 11 kts | 36° |
| 2026-04-22 23:53 | -27.39473 | 153.12283 | 29 ft | 39 kts | 26° |
| 2026-04-22 23:53 | -27.38900 | 153.12614 | 29 ft | 142 kts | 27° |
| 2026-04-22 23:53 | -27.37846 | 153.13211 | 282 ft | 185 kts | 30° |
| 2026-04-22 23:54 | -27.36926 | 153.14136 | 1149 ft | 175 kts | 64° |
| 2026-04-22 23:54 | -27.36544 | 153.15425 | 1735 ft | 179 kts | 94° |
| 2026-04-22 23:54 | -27.36925 | 153.16728 | 2209 ft | 188 kts | 131° |
| 2026-04-22 23:55 | -27.38043 | 153.17552 | 2830 ft | 204 kts | 166° |
| 2026-04-22 23:55 | -27.39524 | 153.17506 | 3503 ft | 228 kts | 193° |
| 2026-04-22 23:55 | -27.41039 | 153.16771 | 4183 ft | 246 kts | 203° |
| 2026-04-22 23:55 | -27.42600 | 153.15873 | 5022 ft | 254 kts | 202° |
| 2026-04-22 23:56 | -27.44218 | 153.15031 | 5927 ft | 259 kts | 199° |
| 2026-04-22 23:56 | -27.45896 | 153.14269 | 6869 ft | 263 kts | 197° |
| 2026-04-22 23:56 | -27.47627 | 153.13549 | 7779 ft | 266 kts | 197° |
| 2026-04-22 23:56 | -27.49386 | 153.12848 | 8685 ft | 272 kts | 196° |
| 2026-04-22 23:57 | -27.51193 | 153.12137 | 9573 ft | 276 kts | 196° |
| 2026-04-22 23:57 | -27.53029 | 153.11414 | 10430 ft | 286 kts | 197° |
| 2026-04-22 23:57 | -27.54989 | 153.10645 | 10750 ft | 309 kts | 197° |
| 2026-04-22 23:57 | -27.57065 | 153.09827 | 11061 ft | 329 kts | 197° |
| 2026-04-22 23:58 | -27.59244 | 153.08963 | 11739 ft | 334 kts | 197° |
| 2026-04-22 23:58 | -27.61451 | 153.08085 | 12536 ft | 338 kts | 197° |
| 2026-04-22 23:58 | -27.63685 | 153.07196 | 13253 ft | 343 kts | 196° |
| 2026-04-22 23:58 | -27.65939 | 153.06300 | 14061 ft | 346 kts | 197° |
| 2026-04-22 23:59 | -27.68227 | 153.05392 | 14703 ft | 350 kts | 197° |
| 2026-04-22 23:59 | -27.70525 | 153.04479 | 15478 ft | 351 kts | 197° |
| 2026-04-22 23:59 | -27.72820 | 153.03568 | 16121 ft | 355 kts | 197° |
| 2026-04-22 23:59 | -27.75149 | 153.02642 | 16847 ft | 357 kts | 197° |
| 2026-04-23 00:00 | -27.79890 | 153.00757 | 18153 ft | 364 kts | 197° |
| 2026-04-23 00:00 | -27.82249 | 152.99819 | 18845 ft | 367 kts | 197° |
| 2026-04-23 00:00 | -27.84663 | 152.98858 | 19448 ft | 369 kts | 198° |
| 2026-04-23 00:01 | -27.87059 | 152.97904 | 20023 ft | 370 kts | 198° |
| 2026-04-23 00:01 | -27.89495 | 152.96933 | 20601 ft | 374 kts | 199° |
| 2026-04-23 00:01 | -27.91959 | 152.95950 | 21160 ft | 376 kts | 199° |
| 2026-04-23 00:01 | -27.94438 | 152.94961 | 21648 ft | 381 kts | 200° |
| 2026-04-23 00:02 | -27.96942 | 152.93960 | 22215 ft | 383 kts | 200° |
| 2026-04-23 00:02 | -27.99466 | 152.92952 | 22707 ft | 387 kts | 200° |
| 2026-04-23 00:02 | -28.02011 | 152.91934 | 23218 ft | 390 kts | 201° |
| 2026-04-23 00:02 | -28.04580 | 152.90906 | 23735 ft | 393 kts | 201° |
| 2026-04-23 00:03 | -28.07169 | 152.89870 | 24194 ft | 396 kts | 201° |
| 2026-04-23 00:03 | -28.09694 | 152.88859 | 24381 ft | 406 kts | 201° |
| 2026-04-23 00:03 | -28.12496 | 152.87734 | 24518 ft | 418 kts | 201° |
| 2026-04-23 00:03 | -28.15270 | 152.86622 | 24635 ft | 430 kts | 201° |
| 2026-04-23 00:04 | -28.18140 | 152.85471 | 24761 ft | 442 kts | 201° |
| 2026-04-23 00:04 | -28.21082 | 152.84292 | 24885 ft | 455 kts | 201° |
| 2026-04-23 00:04 | -28.24104 | 152.83080 | 25105 ft | 464 kts | 201° |
| 2026-04-23 00:04 | -28.27152 | 152.81858 | 25613 ft | 467 kts | 201° |
| 2026-04-23 00:05 | -28.30233 | 152.80621 | 26131 ft | 470 kts | 201° |
| 2026-04-23 00:05 | -28.33323 | 152.79380 | 26648 ft | 474 kts | 201° |
| 2026-04-23 00:05 | -28.36395 | 152.78144 | 27208 ft | 476 kts | 201° |
| 2026-04-23 00:05 | -28.39564 | 152.76869 | 27872 ft | 477 kts | 201° |
| 2026-04-23 00:06 | -28.42714 | 152.75600 | 28340 ft | 483 kts | 201° |
| 2026-04-23 00:06 | -28.45848 | 152.74336 | 28795 ft | 488 kts | 201° |
| 2026-04-23 00:06 | -28.49051 | 152.73045 | 29319 ft | 491 kts | 201° |
| 2026-04-23 00:06 | -28.52284 | 152.71740 | 29839 ft | 494 kts | 201° |
| 2026-04-23 00:07 | -28.55546 | 152.70423 | 30321 ft | 498 kts | 201° |
| 2026-04-23 00:07 | -28.58821 | 152.69100 | 30721 ft | 502 kts | 202° |
| 2026-04-23 00:07 | -28.62119 | 152.67766 | 31294 ft | 503 kts | 201° |
| 2026-04-23 00:07 | -28.65420 | 152.66431 | 31922 ft | 502 kts | 201° |
| 2026-04-23 00:08 | -28.68696 | 152.65106 | 32693 ft | 498 kts | 201° |
| 2026-04-23 00:08 | -28.71963 | 152.63783 | 33341 ft | 498 kts | 201° |
| 2026-04-23 00:08 | -28.75226 | 152.62460 | 34090 ft | 494 kts | 201° |
| 2026-04-23 00:08 | -28.78446 | 152.61155 | 34844 ft | 490 kts | 202° |
| 2026-04-23 00:09 | -28.81665 | 152.59848 | 35311 ft | 492 kts | 202° |
| 2026-04-23 00:09 | -28.84861 | 152.58458 | 35883 ft | 490 kts | 206° |
| 2026-04-23 00:09 | -28.87907 | 152.56749 | 36502 ft | 486 kts | 210° |
| 2026-04-23 00:09 | -28.90896 | 152.54950 | 37047 ft | 486 kts | 210° |
| 2026-04-23 00:10 | -28.93891 | 152.53172 | 37619 ft | 485 kts | 210° |
| 2026-04-23 00:10 | -28.96885 | 152.51399 | 38165 ft | 484 kts | 210° |
| 2026-04-23 00:10 | -28.99872 | 152.49627 | 38732 ft | 484 kts | 211° |
| 2026-04-23 00:10 | -29.02854 | 152.47854 | 39239 ft | 482 kts | 211° |
| 2026-04-23 00:11 | -29.05792 | 152.46104 | 39642 ft | 482 kts | 211° |
| 2026-04-23 00:11 | -29.08770 | 152.44328 | 40068 ft | 482 kts | 211° |
| 2026-04-23 00:11 | -29.11739 | 152.42555 | 40447 ft | 483 kts | 211° |
| 2026-04-23 00:12 | -29.17718 | 152.38983 | 40336 ft | 477 kts | 211° |
| 2026-04-23 00:12 | -29.23614 | 152.35456 | 40332 ft | 480 kts | 211° |
| 2026-04-23 00:13 | -29.29538 | 152.31907 | 40350 ft | 480 kts | 211° |
| 2026-04-23 00:13 | -29.35463 | 152.28353 | 40324 ft | 480 kts | 211° |
| 2026-04-23 00:14 | -29.41350 | 152.24816 | 40332 ft | 481 kts | 211° |
| 2026-04-23 00:14 | -29.47281 | 152.21250 | 40330 ft | 481 kts | 211° |
| 2026-04-23 00:15 | -29.53200 | 152.17686 | 40343 ft | 480 kts | 210° |
| 2026-04-23 00:15 | -29.59116 | 152.14119 | 40336 ft | 480 kts | 210° |
| 2026-04-23 00:16 | -29.65027 | 152.10549 | 40336 ft | 480 kts | 210° |
| 2026-04-23 00:16 | -29.71177 | 152.07507 | 40337 ft | 484 kts | 201° |
| 2026-04-23 00:17 | -29.77712 | 152.05523 | 40339 ft | 487 kts | 195° |
| 2026-04-23 00:17 | -29.84308 | 152.03794 | 40339 ft | 487 kts | 196° |
| 2026-04-23 00:18 | -29.90906 | 152.02055 | 40341 ft | 486 kts | 196° |
| 2026-04-23 00:18 | -29.97513 | 152.00323 | 40340 ft | 486 kts | 196° |
| 2026-04-23 00:19 | -30.04104 | 151.98597 | 40347 ft | 486 kts | 195° |
| 2026-04-23 00:19 | -30.10650 | 151.96880 | 40349 ft | 486 kts | 195° |
| 2026-04-23 00:20 | -30.17238 | 151.95150 | 40354 ft | 486 kts | 195° |
| 2026-04-23 00:20 | -30.23836 | 151.93414 | 40353 ft | 486 kts | 195° |
| 2026-04-23 00:21 | -30.30419 | 151.91654 | 40356 ft | 485 kts | 198° |
| 2026-04-23 00:21 | -30.36766 | 151.89093 | 40361 ft | 482 kts | 205° |
| 2026-04-23 00:22 | -30.42990 | 151.86193 | 40358 ft | 482 kts | 204° |
| 2026-04-23 00:22 | -30.49217 | 151.83312 | 40362 ft | 483 kts | 204° |
| 2026-04-23 00:23 | -30.55445 | 151.80414 | 40361 ft | 483 kts | 204° |
| 2026-04-23 00:23 | -30.61676 | 151.77506 | 40359 ft | 481 kts | 204° |
| 2026-04-23 00:24 | -30.67863 | 151.74614 | 40373 ft | 483 kts | 204° |
| 2026-04-23 00:24 | -30.74086 | 151.71701 | 40365 ft | 483 kts | 204° |
| 2026-04-23 00:25 | -30.80319 | 151.68780 | 40356 ft | 483 kts | 204° |
| 2026-04-23 00:25 | -30.86543 | 151.65859 | 40363 ft | 482 kts | 204° |
| 2026-04-23 00:26 | -30.92775 | 151.62929 | 40351 ft | 483 kts | 204° |
| 2026-04-23 00:26 | -30.99003 | 151.59998 | 40367 ft | 482 kts | 204° |
| 2026-04-23 00:27 | -31.05176 | 151.57089 | 40363 ft | 482 kts | 204° |
| 2026-04-23 00:27 | -31.11401 | 151.54150 | 40370 ft | 482 kts | 204° |
| 2026-04-23 00:28 | -31.17631 | 151.51205 | 40374 ft | 483 kts | 203° |
| 2026-04-23 00:28 | -31.23869 | 151.48253 | 40373 ft | 483 kts | 203° |
| 2026-04-23 00:29 | -31.30096 | 151.45301 | 40368 ft | 483 kts | 203° |
| 2026-04-23 00:29 | -31.36332 | 151.42340 | 40377 ft | 482 kts | 203° |
| 2026-04-23 00:30 | -31.42532 | 151.39452 | 40377 ft | 482 kts | 202° |
| 2026-04-23 00:30 | -31.48797 | 151.36689 | 40384 ft | 481 kts | 202° |
| 2026-04-23 00:31 | -31.55064 | 151.33908 | 40383 ft | 484 kts | 202° |
| 2026-04-23 00:31 | -31.61356 | 151.31094 | 40389 ft | 481 kts | 202° |
| 2026-04-23 00:32 | -31.66571 | 151.28756 | 40382 ft | 482 kts | 202° |
| 2026-04-23 00:32 | -31.72775 | 151.25972 | 40389 ft | 466 kts | 202° |
| 2026-04-23 00:33 | -31.78709 | 151.23306 | 40130 ft | 451 kts | 202° |
| 2026-04-23 00:33 | -31.81636 | 151.21988 | 39901 ft | 451 kts | 201° |
| 2026-04-23 00:33 | -31.84575 | 151.20664 | 39666 ft | 452 kts | 201° |
| 2026-04-23 00:33 | -31.87510 | 151.19341 | 39431 ft | 452 kts | 201° |
| 2026-04-23 00:34 | -31.90442 | 151.18019 | 38924 ft | 452 kts | 201° |
| 2026-04-23 00:34 | -31.93384 | 151.16691 | 37985 ft | 455 kts | 201° |
| 2026-04-23 00:34 | -31.96357 | 151.15351 | 36908 ft | 461 kts | 201° |
| 2026-04-23 00:34 | -31.99285 | 151.14039 | 36022 ft | 463 kts | 201° |
| 2026-04-23 00:35 | -32.02359 | 151.12664 | 35327 ft | 458 kts | 201° |
| 2026-04-23 00:35 | -32.05344 | 151.11327 | 34460 ft | 459 kts | 201° |
| 2026-04-23 00:35 | -32.08310 | 151.09997 | 33848 ft | 453 kts | 201° |
| 2026-04-23 00:35 | -32.11186 | 151.08706 | 33307 ft | 445 kts | 201° |
| 2026-04-23 00:36 | -32.14056 | 151.07415 | 32746 ft | 439 kts | 200° |
| 2026-04-23 00:36 | -32.16886 | 151.06141 | 32158 ft | 433 kts | 200° |
| 2026-04-23 00:36 | -32.19687 | 151.04880 | 31600 ft | 428 kts | 200° |
| 2026-04-23 00:36 | -32.22455 | 151.03634 | 31034 ft | 423 kts | 200° |
| 2026-04-23 00:37 | -32.25125 | 151.02432 | 30486 ft | 419 kts | 200° |
| 2026-04-23 00:37 | -32.27898 | 151.01181 | 29861 ft | 414 kts | 200° |
| 2026-04-23 00:37 | -32.30574 | 150.99973 | 29306 ft | 408 kts | 200° |
| 2026-04-23 00:37 | -32.33209 | 150.98783 | 28774 ft | 403 kts | 200° |
| 2026-04-23 00:38 | -32.35809 | 150.97608 | 28221 ft | 398 kts | 200° |
| 2026-04-23 00:38 | -32.38377 | 150.96447 | 27687 ft | 393 kts | 199° |
| 2026-04-23 00:38 | -32.40927 | 150.95293 | 27152 ft | 389 kts | 199° |
| 2026-04-23 00:38 | -32.43442 | 150.94155 | 26619 ft | 386 kts | 199° |
| 2026-04-23 00:39 | -32.45939 | 150.93024 | 26091 ft | 382 kts | 199° |
| 2026-04-23 00:39 | -32.48465 | 150.92124 | 25574 ft | 378 kts | 190° |
| 2026-04-23 00:39 | -32.51059 | 150.91758 | 25050 ft | 374 kts | 181° |
| 2026-04-23 00:39 | -32.53644 | 150.91902 | 24532 ft | 371 kts | 172° |
| 2026-04-23 00:40 | -32.56150 | 150.92369 | 24024 ft | 368 kts | 171° |
| 2026-04-23 00:40 | -32.58679 | 150.92822 | 23457 ft | 366 kts | 171° |
| 2026-04-23 00:40 | -32.61188 | 150.93260 | 22944 ft | 362 kts | 171° |
| 2026-04-23 00:40 | -32.63662 | 150.93692 | 22431 ft | 358 kts | 171° |
| 2026-04-23 00:41 | -32.66118 | 150.94122 | 21923 ft | 355 kts | 171° |
| 2026-04-23 00:41 | -32.68544 | 150.94550 | 21427 ft | 352 kts | 171° |
| 2026-04-23 00:41 | -32.70952 | 150.94977 | 20926 ft | 349 kts | 170° |
| 2026-04-23 00:41 | -32.73343 | 150.95401 | 20425 ft | 346 kts | 170° |
| 2026-04-23 00:42 | -32.75716 | 150.95823 | 19930 ft | 343 kts | 170° |
| 2026-04-23 00:42 | -32.78066 | 150.96241 | 19438 ft | 340 kts | 170° |
| 2026-04-23 00:42 | -32.80397 | 150.96655 | 18945 ft | 338 kts | 169° |
| 2026-04-23 00:42 | -32.82712 | 150.97066 | 18431 ft | 335 kts | 169° |
| 2026-04-23 00:43 | -32.85007 | 150.97473 | 17946 ft | 332 kts | 169° |
| 2026-04-23 00:43 | -32.87274 | 150.97877 | 17463 ft | 328 kts | 169° |
| 2026-04-23 00:43 | -32.89526 | 150.98279 | 16988 ft | 325 kts | 169° |
| 2026-04-23 00:43 | -32.91750 | 150.98677 | 16516 ft | 322 kts | 169° |
| 2026-04-23 00:44 | -32.93961 | 150.99072 | 16047 ft | 320 kts | 170° |
| 2026-04-23 00:44 | -32.96122 | 150.99457 | 15606 ft | 317 kts | 170° |
| 2026-04-23 00:44 | -32.98297 | 150.99846 | 15127 ft | 315 kts | 170° |
| 2026-04-23 00:44 | -33.00462 | 151.00233 | 14688 ft | 314 kts | 170° |
| 2026-04-23 00:45 | -33.02623 | 151.00620 | 14232 ft | 314 kts | 170° |
| 2026-04-23 00:45 | -33.04779 | 151.01005 | 13740 ft | 313 kts | 170° |
| 2026-04-23 00:45 | -33.06930 | 151.01389 | 13298 ft | 311 kts | 170° |
| 2026-04-23 00:45 | -33.09062 | 151.01770 | 12861 ft | 309 kts | 169° |
| 2026-04-23 00:46 | -33.11185 | 151.02150 | 12418 ft | 307 kts | 169° |
| 2026-04-23 00:46 | -33.13299 | 151.02528 | 11964 ft | 307 kts | 169° |
| 2026-04-23 00:46 | -33.15403 | 151.02905 | 11538 ft | 306 kts | 169° |
| 2026-04-23 00:46 | -33.17501 | 151.03282 | 11099 ft | 304 kts | 169° |
| 2026-04-23 00:47 | -33.19578 | 151.03652 | 10772 ft | 298 kts | 169° |
| 2026-04-23 00:47 | -33.21582 | 151.04009 | 10655 ft | 285 kts | 169° |
| 2026-04-23 00:47 | -33.23520 | 151.04356 | 10435 ft | 280 kts | 169° |
| 2026-04-23 00:47 | -33.25437 | 151.04708 | 10263 ft | 277 kts | 169° |
| 2026-04-23 00:48 | -33.27340 | 151.05075 | 9942 ft | 280 kts | 168° |
| 2026-04-23 00:48 | -33.29262 | 151.05449 | 9529 ft | 280 kts | 168° |
| 2026-04-23 00:48 | -33.31157 | 151.05817 | 9178 ft | 277 kts | 168° |
| 2026-04-23 00:48 | -33.33060 | 151.06184 | 8930 ft | 277 kts | 168° |
| 2026-04-23 00:49 | -33.34942 | 151.06546 | 8642 ft | 271 kts | 168° |
| 2026-04-23 00:49 | -33.36786 | 151.06899 | 8358 ft | 266 kts | 168° |
| 2026-04-23 00:49 | -33.38596 | 151.07244 | 8067 ft | 261 kts | 168° |
| 2026-04-23 00:49 | -33.40371 | 151.07585 | 7790 ft | 256 kts | 168° |
| 2026-04-23 00:50 | -33.42122 | 151.07922 | 7506 ft | 253 kts | 168° |
| 2026-04-23 00:50 | -33.43840 | 151.08251 | 7238 ft | 247 kts | 168° |
| 2026-04-23 00:50 | -33.45534 | 151.08578 | 6966 ft | 247 kts | 168° |
| 2026-04-23 00:50 | -33.47236 | 151.08908 | 6683 ft | 248 kts | 168° |
| 2026-04-23 00:51 | -33.48937 | 151.09237 | 6405 ft | 247 kts | 168° |
| 2026-04-23 00:51 | -33.50624 | 151.09560 | 6123 ft | 245 kts | 168° |
| 2026-04-23 00:51 | -33.52301 | 151.09882 | 5850 ft | 245 kts | 168° |
| 2026-04-23 00:51 | -33.53980 | 151.10205 | 5572 ft | 245 kts | 168° |
| 2026-04-23 00:52 | -33.55644 | 151.10526 | 5302 ft | 245 kts | 168° |
| 2026-04-23 00:52 | -33.57318 | 151.10849 | 5012 ft | 243 kts | 168° |
| 2026-04-23 00:52 | -33.58975 | 151.11169 | 4738 ft | 239 kts | 168° |
| 2026-04-23 00:52 | -33.60628 | 151.11490 | 4457 ft | 242 kts | 168° |
| 2026-04-23 00:53 | -33.62282 | 151.11811 | 4181 ft | 239 kts | 168° |
| 2026-04-23 00:53 | -33.63920 | 151.12133 | 3899 ft | 237 kts | 169° |
| 2026-04-23 00:53 | -33.65539 | 151.12454 | 3603 ft | 236 kts | 169° |
| 2026-04-23 00:53 | -33.67147 | 151.12769 | 3338 ft | 232 kts | 169° |
| 2026-04-23 00:54 | -33.68736 | 151.13082 | 3066 ft | 230 kts | 170° |
| 2026-04-23 00:54 | -33.70194 | 151.13370 | 2793 ft | 232 kts | 169° |
| 2026-04-23 00:54 | -33.71830 | 151.13695 | 2503 ft | 231 kts | 169° |
| 2026-04-23 00:54 | -33.73405 | 151.14012 | 2225 ft | 229 kts | 169° |
| 2026-04-23 00:55 | -33.74975 | 151.14330 | 2024 ft | 236 kts | 169° |
| 2026-04-23 00:55 | -33.76604 | 151.14660 | 1994 ft | 241 kts | 169° |
| 2026-04-23 00:55 | -33.78243 | 151.14991 | 1993 ft | 233 kts | 169° |
| 2026-04-23 00:55 | -33.79398 | 151.15223 | 1991 ft | 223 kts | 169° |
| 2026-04-23 00:56 | -33.79490 | 151.15242 | 1989 ft | 221 kts | 169° |
| 2026-04-23 00:56 | -33.80981 | 151.15491 | 1993 ft | 203 kts | 174° |
| 2026-04-23 00:56 | -33.81503 | 151.15535 | 1985 ft | 196 kts | 175° |
| 2026-04-23 00:56 | -33.82016 | 151.15587 | 1991 ft | 187 kts | 173° |
| 2026-04-23 00:57 | -33.83201 | 151.15785 | 2000 ft | 159 kts | 168° |
| 2026-04-23 00:57 | -33.84281 | 151.16048 | 1999 ft | 159 kts | 166° |
| 2026-04-23 00:57 | -33.85336 | 151.16323 | 1993 ft | 149 kts | 168° |
| 2026-04-23 00:57 | -33.86335 | 151.16579 | 1790 ft | 143 kts | 166° |
| 2026-04-23 00:58 | -33.87273 | 151.16826 | 1625 ft | 135 kts | 166° |
| 2026-04-23 00:58 | -33.88153 | 151.17052 | 1444 ft | 131 kts | 165° |
| 2026-04-23 00:58 | -33.89041 | 151.17285 | 1278 ft | 126 kts | 166° |
| 2026-04-23 00:58 | -33.89902 | 151.17505 | 1100 ft | 129 kts | 165° |
| 2026-04-23 00:59 | -33.90768 | 151.17736 | 941 ft | 126 kts | 166° |
| 2026-04-23 00:59 | -33.91621 | 151.17951 | 775 ft | 124 kts | 167° |
| 2026-04-23 00:59 | -33.92466 | 151.18178 | 605 ft | 127 kts | 167° |
| 2026-04-23 00:59 | -33.93303 | 151.18387 | 424 ft | 125 kts | 166° |
| 2026-04-23 01:00 | -33.94154 | 151.18626 | 263 ft | 125 kts | 165° |
| 2026-04-23 01:00 | -33.95000 | 151.18843 | 89 ft | 125 kts | 167° |
| 2026-04-23 01:00 | -33.95798 | 151.19049 | 32 ft | 98 kts | 169° |
| 2026-04-23 01:00 | -33.96256 | 151.19164 | 31 ft | 39 kts | 168° |
| 2026-04-23 01:01 | -33.96491 | 151.19213 | 30 ft | 33 kts | 177° |
| 2026-04-23 01:01 | -33.96664 | 151.19184 | 31 ft | 14 kts | 202° |
| 2026-04-23 01:01 | -33.96701 | 151.19127 | 34 ft | 7 kts | 281° |
| 2026-04-23 01:01 | -33.96676 | 151.19088 | 34 ft | 8 kts | 340° |
| 2026-04-23 01:02 | -33.96602 | 151.19058 | 35 ft | 15 kts | 344° |
| 2026-04-23 01:02 | -33.96480 | 151.19021 | 35 ft | 21 kts | 348° |
| 2026-04-23 01:02 | -33.96321 | 151.18979 | 35 ft | 26 kts | 347° |
| 2026-04-23 01:02 | -33.96134 | 151.18931 | 35 ft | 29 kts | 350° |
| 2026-04-23 01:03 | -33.95928 | 151.18883 | 35 ft | 31 kts | 347° |
| 2026-04-23 01:03 | -33.95711 | 151.18822 | 34 ft | 34 kts | 347° |
| 2026-04-23 01:03 | -33.95490 | 151.18765 | 35 ft | 25 kts | 348° |
| 2026-04-23 01:03 | -33.95322 | 151.18719 | 35 ft | 22 kts | 341° |
| 2026-04-23 01:04 | -33.95186 | 151.18622 | 35 ft | 21 kts | 319° |
| 2026-04-23 01:04 | -33.95115 | 151.18484 | 35 ft | 21 kts | 276° |
| 2026-04-23 01:04 | -33.95169 | 151.18123 | 35 ft | 14 kts | 271° |
| 2026-04-23 01:05 | -33.95112 | 151.18038 | 35 ft | 16 kts | 344° |
| 2026-04-23 01:05 | -33.94983 | 151.18001 | 35 ft | 22 kts | 347° |
| 2026-04-23 01:05 | -33.94815 | 151.17958 | 35 ft | 27 kts | 348° |
| 2026-04-23 01:05 | -33.94622 | 151.17909 | 35 ft | 29 kts | 348° |
| 2026-04-23 01:06 | -33.94484 | 151.17898 | 35 ft | 18 kts | 25° |
| 2026-04-23 01:06 | -33.94352 | 151.17897 | 35 ft | 22 kts | 348° |
| 2026-04-23 01:06 | -33.94186 | 151.17853 | 35 ft | 27 kts | 348° |
| 2026-04-23 01:06 | -33.94007 | 151.17806 | 34 ft | 26 kts | 351° |
| 2026-04-23 01:07 | -33.93886 | 151.17772 | 35 ft | 15 kts | 330° |
| 2026-04-23 01:07 | -33.93782 | 151.17697 | 35 ft | 20 kts | 348° |
| 2026-04-23 01:07 | -33.93648 | 151.17634 | 35 ft | 22 kts | 336° |
| 2026-04-23 01:07 | -33.93508 | 151.17597 | 35 ft | 13 kts | 339° |
| 2026-04-23 01:08 | -33.93468 | 151.17501 | 35 ft | 15 kts | 263° |
| 2026-04-23 01:08 | -33.93484 | 151.17358 | 32 ft | 18 kts | 285° |
| 2026-04-23 01:08 | -33.93428 | 151.17247 | 32 ft | 16 kts | 274° |
| 2026-04-23 01:08 | -33.93461 | 151.17113 | 34 ft | 17 kts | 233° |
| 2026-04-23 01:09 | -33.93506 | 151.17024 | 35 ft | 7 kts | 248° |
| 2026-04-23 01:09 | -33.93511 | 151.17008 | 35 ft | 2 kts | 250° |
| 2026-04-23 01:09 | -33.93518 | 151.16984 | 35 ft | 2 kts | 250° |
| 2026-04-23 01:09 | -33.93534 | 151.16944 | 35 ft | 7 kts | 225° |
| 2026-04-23 01:10 | -33.93579 | 151.16921 | 35 ft | 3 kts | 182° |
| 2026-04-23 01:10 | -33.93602 | 151.16921 | 35 ft | 3 kts | 179° |
| 2026-04-23 01:10 | -33.93610 | 151.16921 | 35 ft | 2 kts | 179° |
| 2026-04-23 01:10 | -33.93614 | 151.16921 | 35 ft | 0 kts | 179° |
| 2026-04-23 01:11 | -33.93615 | 151.16921 | 35 ft | 0 kts | 179° |